Time;durP1;ratioP1;P1;durP2;ratioP2;P2;SDS_P1;SDS_P2;PMS_P1;PMS_P2;Temp;Humidity;BMP_temperature;BMP_pressure;BME280_temperature;BME280_humidity;BME280_pressure;Samples;Min_cycle;Max_cycle;Signal;HPM_P1;HPM_P2
2022/08/22 00:03:10;;;;;;;1.23;0.90;;;27.50;46.50;;;-147.20;100.00;58430.41;5095650;28;20161;-9
2022/08/22 00:05:55;;;;;;;1.10;1.00;;;27.50;46.50;;;-147.20;100.00;58430.41;5114343;28;20427;-9
2022/08/22 00:08:57;;;;;;;1.05;0.90;;;27.50;46.50;;;-147.20;100.00;58430.41;5113892;28;20051;-9
2022/08/22 00:11:45;;;;;;;1.20;1.10;;;27.40;46.50;;;-147.20;100.00;58430.41;5114291;28;20477;-9
2022/08/22 00:14:31;;;;;;;1.02;0.93;;;27.40;46.50;;;-147.20;100.00;58430.41;5095709;28;20047;-8
2022/08/22 00:17:20;;;;;;;2.25;1.05;;;27.50;46.50;;;-147.20;100.00;58430.41;5095764;28;20077;-9
2022/08/22 00:20:03;;;;;;;1.38;1.00;;;27.50;46.60;;;-147.20;100.00;58430.41;5094079;28;20062;-9
2022/08/22 00:22:51;;;;;;;1.10;1.00;;;27.50;46.60;;;-147.20;100.00;58430.41;5093841;28;20040;-9
2022/08/22 00:25:48;;;;;;;1.42;1.10;;;27.50;46.60;;;-147.20;100.00;58430.41;5113809;28;20105;-9
2022/08/22 00:28:29;;;;;;;1.10;1.00;;;27.50;46.60;;;-147.20;100.00;58430.41;5113296;28;20405;-9
2022/08/22 00:31:27;;;;;;;1.10;1.00;;;27.40;46.50;;;-147.20;100.00;58430.41;5113738;28;20043;-8
2022/08/22 00:34:14;;;;;;;1.10;1.00;;;27.40;46.50;;;-147.20;100.00;58430.41;5113832;28;20044;-9
2022/08/22 00:37:02;;;;;;;1.40;1.10;;;27.50;46.60;;;-147.20;100.00;58430.41;5113618;28;20057;-9
2022/08/22 00:39:38;;;;;;;0.82;0.82;;;27.40;46.50;;;-147.20;100.00;58430.41;5095716;28;20052;-9
2022/08/22 00:42:35;;;;;;;1.13;1.00;;;27.40;46.60;;;-147.20;100.00;58430.41;5095375;28;20108;-9
2022/08/22 00:46:01;;;;;;;1.08;0.90;;;27.40;46.50;;;-147.20;100.00;58430.41;5094087;28;20101;-9
2022/08/22 00:48:43;;;;;;;2.15;0.93;;;27.40;46.60;;;-147.20;100.00;58430.41;5018841;28;21450;-9
2022/08/22 00:51:11;;;;;;;1.08;0.98;;;27.50;46.60;;;-147.20;100.00;58430.41;5113389;28;20048;-9
2022/08/22 00:54:10;;;;;;;1.77;1.20;;;27.50;46.60;;;-147.20;100.00;58430.41;5093934;28;20379;-9
2022/08/22 00:56:54;;;;;;;1.13;0.98;;;27.40;46.60;;;-147.20;100.00;58430.41;5113173;28;20051;-9
2022/08/22 01:00:04;;;;;;;1.13;1.00;;;27.40;46.60;;;-147.20;100.00;58430.41;5113231;28;20043;-9
2022/08/22 01:03:27;;;;;;;1.70;1.13;;;27.40;46.60;;;-147.20;100.00;58430.41;5091338;28;20051;-9
2022/08/22 01:06:03;;;;;;;1.65;0.95;;;27.40;46.60;;;-147.20;100.00;58430.41;5113263;28;20056;-8
2022/08/22 01:08:59;;;;;;;1.10;1.00;;;27.40;46.60;;;-147.20;100.00;58430.41;5113342;28;20054;-9
2022/08/22 01:11:55;;;;;;;1.30;1.20;;;27.40;46.60;;;-147.20;100.00;58430.41;5113164;28;20044;-9
2022/08/22 01:14:36;;;;;;;1.13;1.02;;;27.40;46.60;;;-147.20;100.00;58430.41;5113030;28;20092;-9
2022/08/22 01:17:10;;;;;;;;;;;27.40;46.60;;;-147.20;100.00;58430.41;5113528;28;20048;-9
2022/08/22 01:20:43;;;;;;;1.60;1.10;;;27.40;46.60;;;-147.20;100.00;58430.41;5073959;28;19916;-9
2022/08/22 01:23:45;;;;;;;0.88;0.88;;;27.40;46.60;;;-147.20;100.00;58430.41;5087691;28;20048;-9
2022/08/22 01:26:54;;;;;;;2.10;1.20;;;27.40;46.70;;;-147.20;100.00;58430.41;5112943;28;20047;-9
2022/08/22 01:29:34;;;;;;;1.15;1.00;;;27.40;46.70;;;-147.20;100.00;58430.41;5112759;28;20077;-9
2022/08/22 01:32:19;;;;;;;0.80;0.80;;;27.40;46.70;;;-147.20;100.00;58430.41;5094523;28;20462;-9
2022/08/22 01:35:02;;;;;;;1.50;1.00;;;27.40;46.70;;;-147.20;100.00;58430.41;5112667;28;20328;-9
2022/08/22 01:37:51;;;;;;;2.10;1.05;;;27.40;46.70;;;-147.20;100.00;58430.41;5092807;28;20055;-9
2022/08/22 01:41:00;;;;;;;1.23;1.00;;;27.40;46.70;;;-147.20;100.00;58430.41;5094490;28;20050;-8
2022/08/22 01:43:51;;;;;;;1.20;1.00;;;27.40;46.70;;;-147.20;100.00;58430.41;5112789;28;20044;-8
2022/08/22 01:46:52;;;;;;;1.20;1.10;;;27.40;46.70;;;-147.20;100.00;58430.41;5112619;28;20140;-9
2022/08/22 01:50:00;;;;;;;2.08;1.20;;;27.40;46.70;;;-147.20;100.00;58430.41;5112935;28;20046;-8
2022/08/22 01:52:46;;;;;;;2.05;1.30;;;27.40;46.70;;;-147.20;100.00;58430.41;5052499;28;20485;-8
2022/08/22 01:55:42;;;;;;;1.23;1.05;;;27.40;46.70;;;-147.20;100.00;58430.41;5112746;28;20165;-9
2022/08/22 01:58:19;;;;;;;1.30;1.00;;;27.40;46.70;;;-147.20;100.00;58430.41;5097497;28;20059;-8
2022/08/22 02:01:29;;;;;;;1.25;0.90;;;27.40;46.70;;;-147.20;100.00;58430.41;5116295;28;20051;-8
2022/08/22 02:04:10;;;;;;;0.90;0.90;;;27.40;46.70;;;-147.20;100.00;58430.41;5116046;28;20465;-8
2022/08/22 02:07:01;;;;;;;1.08;0.80;;;27.40;46.70;;;-147.20;100.00;58430.41;5096747;28;20048;-9
2022/08/22 02:10:19;;;;;;;1.27;1.17;;;27.40;46.70;;;-147.20;100.00;58430.41;5115826;28;20047;-9
2022/08/22 02:13:06;;;;;;;0.95;0.95;;;27.40;46.70;;;-147.20;100.00;58430.41;5115858;28;20043;-9
2022/08/22 02:15:41;;;;;;;1.20;1.00;;;27.40;46.80;;;-147.20;100.00;58430.41;5116166;28;20049;-9
2022/08/22 02:18:09;;;;;;;1.60;1.13;;;27.30;46.70;;;-147.20;100.00;58430.41;5116010;28;20078;-9
2022/08/22 02:20:46;;;;;;;1.17;0.90;;;27.30;46.70;;;-147.20;100.00;58430.41;5115711;28;20075;-9
2022/08/22 02:23:39;;;;;;;0.93;0.85;;;27.30;46.70;;;-147.20;100.00;58430.41;5115789;28;20071;-9
2022/08/22 02:26:19;;;;;;;1.08;0.98;;;27.30;46.70;;;-147.20;100.00;58430.41;5115650;28;20409;-8
2022/08/22 02:28:57;;;;;;;1.27;1.02;;;27.40;46.80;;;-147.20;100.00;58430.41;5115581;28;20047;-9
2022/08/22 02:31:42;;;;;;;1.55;1.20;;;27.30;46.70;;;-147.20;100.00;58430.41;5097388;28;20048;-9
2022/08/22 02:34:36;;;;;;;1.13;0.85;;;27.30;46.70;;;-147.20;100.00;58430.41;5115354;28;20142;-9
2022/08/22 02:37:20;;;;;;;1.63;1.10;;;27.30;46.70;;;-147.20;100.00;58430.41;5095085;28;20052;-9
2022/08/22 02:40:26;;;;;;;0.85;0.75;;;27.30;46.70;;;-147.20;100.00;58430.41;5115398;28;20489;-9
2022/08/22 02:43:27;;;;;;;1.00;0.90;;;27.30;47.30;;;-147.20;100.00;58430.41;5115299;28;20059;-9
2022/08/22 02:46:24;;;;;;;1.20;0.90;;;27.30;46.80;;;-147.20;100.00;58430.41;5029046;28;20044;-9
2022/08/22 02:49:16;;;;;;;1.10;1.00;;;27.30;46.70;;;-147.20;100.00;58430.41;5115278;28;20051;-9
2022/08/22 02:52:05;;;;;;;1.20;1.00;;;27.30;46.70;;;-147.20;100.00;58430.41;5097000;28;20458;-9
2022/08/22 02:55:02;;;;;;;1.20;1.10;;;27.30;46.70;;;-147.20;100.00;58430.41;5115103;28;20401;-9
2022/08/22 02:57:35;;;;;;;1.10;1.00;;;27.30;46.80;;;-147.20;100.00;58430.41;5095908;28;20056;-9
2022/08/22 03:00:13;;;;;;;1.10;1.00;;;27.30;46.80;;;-147.20;100.00;58430.41;5096423;28;20113;-9
2022/08/22 03:03:15;;;;;;;1.20;0.80;;;27.30;46.80;;;-147.20;100.00;58430.41;5115230;28;20058;-9
2022/08/22 03:05:43;;;;;;;1.10;1.00;;;27.30;46.80;;;-147.20;100.00;58430.41;5115031;28;20044;-9
2022/08/22 03:08:33;;;;;;;1.38;1.00;;;27.30;46.80;;;-147.20;100.00;58430.41;5114113;28;20044;-9
2022/08/22 03:11:25;;;;;;;1.50;0.93;;;27.30;46.80;;;-147.20;100.00;58430.41;5097199;28;20043;-9
2022/08/22 03:14:24;;;;;;;0.95;0.88;;;27.30;46.80;;;-147.20;100.00;58430.41;5096987;28;20043;-9
2022/08/22 03:17:19;;;;;;;1.20;1.00;;;27.30;46.80;;;-147.20;100.00;58430.41;5096149;28;20108;-9
2022/08/22 03:20:09;;;;;;;1.50;0.93;;;27.30;46.80;;;-147.20;100.00;58430.41;5114688;28;20126;-9
2022/08/22 03:22:53;;;;;;;1.20;1.02;;;27.30;46.80;;;-147.20;100.00;58430.41;5096573;28;20055;-9
2022/08/22 03:25:37;;;;;;;1.00;0.93;;;27.30;46.80;;;-147.20;100.00;58430.41;5096573;28;20144;-8
2022/08/22 03:28:26;;;;;;;1.20;1.00;;;27.30;46.80;;;-147.20;100.00;58430.41;5096075;28;20116;-9
2022/08/22 03:30:54;;;;;;;1.10;1.00;;;27.30;46.80;;;-147.20;100.00;58430.41;5096546;28;20044;-8
2022/08/22 03:33:29;;;;;;;1.60;1.00;;;27.30;46.80;;;-147.20;100.00;58430.41;5115037;28;20144;-9
2022/08/22 03:36:13;;;;;;;0.70;0.70;;;27.30;46.90;;;-147.20;100.00;58430.41;5114659;28;20508;-9
2022/08/22 03:38:51;;;;;;;1.20;1.00;;;27.30;46.80;;;-147.20;100.00;58430.41;5114592;28;20052;-9
2022/08/22 03:41:51;;;;;;;0.95;0.90;;;27.30;46.80;;;-147.20;100.00;58430.41;5096300;28;20054;-9
2022/08/22 03:44:53;;;;;;;1.45;1.00;;;27.30;46.80;;;-147.20;100.00;58430.41;5114435;28;20040;-8
2022/08/22 03:47:23;;;;;;;;;;;27.30;46.80;;;-147.20;100.00;58430.41;5095019;28;20056;-9
2022/08/22 03:50:38;;;;;;;1.38;1.13;;;27.30;46.80;;;-147.20;100.00;58430.41;5094929;28;19930;-9
2022/08/22 03:53:32;;;;;;;1.65;1.15;;;27.30;46.80;;;-147.20;100.00;58430.41;5114294;28;20172;-9
2022/08/22 03:56:45;;;;;;;1.60;1.00;;;27.30;46.80;;;-147.20;100.00;58430.41;5114284;28;20077;-9
2022/08/22 04:00:08;;;;;;;1.30;1.05;;;27.30;46.80;;;-147.20;100.00;58430.41;5114083;28;21311;-8
2022/08/22 04:03:09;;;;;;;1.13;1.02;;;27.30;46.90;;;-147.20;100.00;58430.41;5113894;28;20058;-9
2022/08/22 04:05:54;;;;;;;2.60;1.33;;;27.30;46.90;;;-147.20;100.00;58430.41;5099421;28;20048;-8
2022/08/22 04:08:41;;;;;;;1.88;1.10;;;27.30;46.90;;;-147.20;100.00;58430.41;5095874;28;20413;-9
2022/08/22 04:12:02;;;;;;;2.40;1.10;;;27.30;46.90;;;-147.20;100.00;58430.41;5114360;28;20039;-9
2022/08/22 04:14:59;;;;;;;1.80;1.17;;;27.30;46.90;;;-147.20;100.00;58430.41;5109288;28;20059;-9
2022/08/22 04:18:15;;;;;;;1.35;1.15;;;27.30;46.90;;;-147.20;100.00;58430.41;5113681;28;20504;-9
2022/08/22 04:20:53;;;;;;;1.20;1.00;;;27.30;46.90;;;-147.20;100.00;58430.41;5095886;28;20044;-9
2022/08/22 04:24:02;;;;;;;1.63;1.13;;;27.30;46.90;;;-147.20;100.00;58430.41;5113852;28;20048;-9
2022/08/22 04:27:08;;;;;;;1.38;1.20;;;27.30;46.90;;;-147.20;100.00;58430.41;5113731;28;20044;-9
2022/08/22 04:29:58;;;;;;;1.10;1.00;;;27.30;46.90;;;-147.20;100.00;58430.41;5113667;28;20074;-9
2022/08/22 04:32:35;;;;;;;1.33;1.00;;;27.30;46.90;;;-147.20;100.00;58430.41;5093726;28;20056;-9
2022/08/22 04:35:39;;;;;;;1.00;0.90;;;27.30;46.90;;;-147.20;100.00;58430.41;5094559;28;20109;-9
2022/08/22 04:38:21;;;;;;;1.40;1.10;;;27.30;46.90;;;-147.20;100.00;58430.41;5074589;28;20086;-9
2022/08/22 04:40:54;;;;;;;0.85;0.85;;;27.30;46.90;;;-147.20;100.00;58430.41;5094621;28;20493;-9
2022/08/22 04:43:44;;;;;;;1.17;1.05;;;27.30;46.90;;;-147.20;100.00;58430.41;5094982;28;20035;-9
2022/08/22 04:46:43;;;;;;;1.25;0.90;;;27.20;46.90;;;-147.20;100.00;58430.41;5095328;28;20047;-9
2022/08/22 04:49:24;;;;;;;2.05;1.35;;;27.30;46.90;;;-147.20;100.00;58430.41;5095465;28;20058;-9
2022/08/22 04:52:09;;;;;;;;;;;27.30;46.90;;;-147.20;100.00;58430.41;5114209;28;20064;-9
2022/08/22 04:54:40;;;;;;;1.10;1.00;;;27.30;46.90;;;-147.20;100.00;58430.41;5095478;28;20343;-9
2022/08/22 04:57:21;;;;;;;0.93;0.93;;;27.30;46.90;;;-147.20;100.00;58430.41;5113209;28;20097;-9
2022/08/22 04:59:49;;;;;;;0.80;0.80;;;27.30;46.90;;;-147.20;100.00;58430.41;5093867;28;20083;-9
2022/08/22 05:02:26;;;;;;;1.70;1.10;;;27.20;46.90;;;-147.20;100.00;58430.41;5093382;28;20048;-8
2022/08/22 05:05:09;;;;;;;1.27;1.02;;;27.30;46.90;;;-147.20;100.00;58430.41;5094328;28;20405;-9
2022/08/22 05:07:43;;;;;;;1.20;1.10;;;27.30;46.90;;;-147.20;100.00;58430.41;5112645;28;20126;-9
2022/08/22 05:10:27;;;;;;;1.20;1.10;;;27.30;47.00;;;-147.20;100.00;58430.41;5094969;28;20070;-9
2022/08/22 05:13:07;;;;;;;0.80;0.80;;;27.30;46.90;;;-147.20;100.00;58430.41;5113384;28;20040;-9
2022/08/22 05:15:42;;;;;;;1.20;1.00;;;27.30;46.90;;;-147.20;100.00;58430.41;5094849;28;20047;-9
2022/08/22 05:18:20;;;;;;;0.90;0.90;;;27.30;47.00;;;-147.20;100.00;58430.41;5111061;28;20054;-9
2022/08/22 05:20:49;;;;;;;1.17;1.00;;;27.30;47.00;;;-147.20;100.00;58430.41;5078518;28;20453;-9
2022/08/22 05:23:54;;;;;;;1.02;0.90;;;27.30;46.90;;;-147.20;100.00;58430.41;5094674;28;20047;-8
2022/08/22 05:26:21;;;;;;;0.90;0.90;;;27.30;46.90;;;-147.20;100.00;58430.41;4993968;28;20061;-9
2022/08/22 05:28:57;;;;;;;1.10;1.00;;;27.30;46.90;;;-147.20;100.00;58430.41;5021827;28;20048;-9
2022/08/22 05:31:53;;;;;;;1.55;1.10;;;27.30;46.90;;;-147.20;100.00;58430.41;5099363;28;20385;-8
2022/08/22 05:34:23;;;;;;;1.95;1.15;;;27.30;46.90;;;-147.20;100.00;58430.41;5101325;28;20059;-9
2022/08/22 05:37:01;;;;;;;1.92;1.20;;;27.30;46.90;;;-147.20;100.00;58430.41;5119637;28;20044;-9
2022/08/22 05:39:28;;;;;;;1.20;1.02;;;27.30;47.00;;;-147.20;100.00;58430.41;5118438;28;20070;-9
2022/08/22 05:41:57;;;;;;;1.80;1.10;;;27.30;46.90;;;-147.20;100.00;58430.41;5101349;28;20130;-9
2022/08/22 05:44:34;;;;;;;1.15;1.02;;;27.30;46.90;;;-147.20;100.00;58430.41;5119812;28;20104;-9
2022/08/22 05:47:04;;;;;;;1.95;1.15;;;27.30;46.90;;;-147.20;100.00;58430.41;5119607;28;20051;-10
2022/08/22 05:50:01;;;;;;;1.27;1.17;;;27.30;46.90;;;-147.20;100.00;58430.41;5119554;28;20509;-9
2022/08/22 05:53:15;;;;;;;1.40;1.00;;;27.30;46.90;;;-147.20;100.00;58430.41;5099955;28;20048;-9
2022/08/22 05:56:04;;;;;;;0.93;0.82;;;27.30;46.90;;;-147.20;100.00;58430.41;5100945;28;20048;-9
2022/08/22 05:58:42;;;;;;;1.27;1.05;;;27.30;46.90;;;-147.20;100.00;58430.41;5100247;28;20181;-9
2022/08/22 06:01:30;;;;;;;1.02;0.85;;;27.30;46.90;;;-147.20;100.00;58430.41;5119301;28;20043;-9
2022/08/22 06:04:23;;;;;;;1.50;1.20;;;27.30;46.90;;;-147.20;100.00;58430.41;5100803;28;20054;-9
2022/08/22 06:07:09;;;;;;;2.20;1.00;;;27.30;46.90;;;-147.20;100.00;58430.41;5118841;28;20182;-9
2022/08/22 06:09:46;;;;;;;1.48;0.95;;;27.30;46.90;;;-147.20;100.00;58430.41;5101108;28;20048;-9
2022/08/22 06:12:35;;;;;;;1.25;1.10;;;27.30;46.90;;;-147.20;100.00;58430.41;5118985;28;20409;-9
2022/08/22 06:15:23;;;;;;;1.58;1.15;;;27.30;46.90;;;-147.20;100.00;58430.41;5118820;28;20512;-9
2022/08/22 06:18:04;;;;;;;1.55;0.95;;;27.30;46.80;;;-147.20;100.00;58430.41;5100051;28;20067;-9
2022/08/22 06:20:43;;;;;;;;;;;27.30;46.80;;;-147.20;100.00;58430.41;5100213;28;20040;-9
2022/08/22 06:23:16;;;;;;;1.30;0.93;;;27.40;46.80;;;-147.20;100.00;58430.41;5119043;28;19964;-9
2022/08/22 06:25:46;;;;;;;1.95;0.90;;;27.40;46.70;;;-147.20;100.00;58430.41;5097529;28;20441;-9
2022/08/22 06:28:21;;;;;;;2.08;1.10;;;27.40;46.70;;;-147.20;100.00;58430.41;5118723;28;20053;-9
2022/08/22 06:30:52;;;;;;;1.15;0.88;;;27.40;46.70;;;-147.20;100.00;58430.41;5118781;28;20043;-9
2022/08/22 06:33:25;;;;;;;1.25;1.10;;;27.40;46.70;;;-147.20;100.00;58430.41;5100641;28;20051;-9
2022/08/22 06:39:11;;;;;;;1.23;1.10;;;27.40;46.50;;;-147.20;100.00;58430.41;5101062;28;20047;-9
2022/08/22 06:41:51;;;;;;;1.45;1.08;;;27.50;46.50;;;-147.20;100.00;58430.41;5100143;28;20082;-9
2022/08/22 06:44:25;;;;;;;1.45;1.02;;;27.60;46.40;;;-147.20;100.00;58430.41;5115721;28;20048;-9
2022/08/22 06:46:57;;;;;;;1.52;1.20;;;27.60;46.40;;;-147.20;100.00;58430.41;5080086;28;20393;-9
2022/08/22 06:49:26;;;;;;;1.50;1.00;;;27.60;46.30;;;-147.20;100.00;58430.41;5115249;28;20489;-9
2022/08/22 06:51:59;;;;;;;1.25;0.90;;;27.70;46.20;;;-147.20;100.00;58430.41;5097002;28;20502;-9
2022/08/22 06:54:30;;;;;;;2.47;1.17;;;27.80;46.10;;;-147.20;100.00;58430.41;5115453;28;20413;-9
2022/08/22 06:56:56;;;;;;;1.48;1.35;;;27.80;46.00;;;-147.20;100.00;58430.41;5115417;28;20058;-10
2022/08/22 06:59:29;;;;;;;2.65;1.00;;;27.90;45.90;;;-147.20;100.00;58430.41;5075074;28;20052;-9
2022/08/22 07:02:16;;;;;;;1.27;1.15;;;28.00;45.80;;;-147.20;100.00;58430.41;5097262;28;20143;-9
2022/08/22 07:04:41;;;;;;;0.95;0.95;;;28.10;45.70;;;-147.20;100.00;58430.41;5097480;28;20052;-9
2022/08/22 07:07:07;;;;;;;1.10;1.00;;;28.20;45.60;;;-147.20;100.00;58430.41;5115019;28;20378;-9
2022/08/22 07:09:37;;;;;;;1.30;1.05;;;28.20;45.40;;;-147.20;100.00;58430.41;5114910;28;20043;-9
2022/08/22 07:12:18;;;;;;;1.75;1.15;;;28.30;45.30;;;-147.20;100.00;58430.41;5114859;28;20122;-9
2022/08/22 07:14:49;;;;;;;1.85;1.13;;;28.40;45.20;;;-147.20;100.00;58430.41;5097276;28;20047;-9
2022/08/22 07:17:22;;;;;;;;;;;28.40;45.00;;;-147.20;100.00;58430.41;5097208;28;20047;-9
2022/08/22 07:20:18;;;;;;;4.00;1.42;;;28.50;45.00;;;-147.20;100.00;58430.41;5096538;28;20069;-9
2022/08/22 07:22:58;;;;;;;1.02;0.93;;;28.50;44.90;;;-147.20;100.00;58430.41;5114877;28;20113;-9
2022/08/22 07:25:24;;;;;;;1.63;1.02;;;28.40;45.00;;;-147.20;100.00;58430.41;5114703;28;20044;-9
2022/08/22 07:28:30;;;;;;;1.20;1.10;;;28.40;45.20;;;-147.20;100.00;58430.41;5114665;28;20077;-10
2022/08/22 07:31:09;;;;;;;1.98;1.20;;;28.30;45.20;;;-147.20;100.00;58430.41;5114600;28;20051;-9
2022/08/22 07:33:49;;;;;;;2.25;1.35;;;28.20;45.30;;;-147.20;100.00;58430.41;5094514;28;20040;-9
2022/08/22 07:36:30;;;;;;;2.67;1.55;;;28.20;45.40;;;-147.20;100.00;58430.41;5114647;28;20382;-9
2022/08/22 07:39:13;;;;;;;2.00;1.50;;;28.20;45.40;;;-147.20;100.00;58430.41;5114582;28;20130;-9
2022/08/22 07:42:13;;;;;;;1.30;1.20;;;28.20;45.40;;;-147.20;100.00;58430.41;5096279;28;20100;-9
2022/08/22 07:45:00;;;;;;;1.50;1.25;;;28.20;45.40;;;-147.20;100.00;58430.41;5114112;28;20566;-11
2022/08/22 07:47:57;;;;;;;2.58;1.33;;;28.10;46.30;;;-147.20;100.00;58430.41;5114210;28;20073;-9
2022/08/22 07:50:35;;;;;;;1.92;1.33;;;28.20;46.10;;;-147.20;100.00;58430.41;5114470;28;20055;-10
2022/08/22 07:53:27;;;;;;;3.72;1.40;;;28.30;45.90;;;-147.20;100.00;58430.41;5114160;28;20055;-10
2022/08/22 07:55:55;;;;;;;5.13;1.88;;;28.50;45.80;;;-147.20;100.00;58430.41;5114223;28;20043;-10
2022/08/22 07:58:24;;;;;;;3.40;1.58;;;28.60;45.60;;;-147.20;100.00;58430.41;5093977;28;20046;-10
2022/08/22 08:00:51;;;;;;;6.22;1.65;;;28.80;45.60;;;-147.20;100.00;58430.41;5114102;28;20184;-9
2022/08/22 08:03:22;;;;;;;3.50;2.08;;;28.80;45.40;;;-147.20;100.00;58430.41;5096106;28;20054;-10
2022/08/22 08:05:48;;;;;;;4.55;1.85;;;28.90;45.40;;;-147.20;100.00;58430.41;5095940;28;20042;-10
2022/08/22 08:08:39;;;;;;;4.90;1.90;;;29.00;45.40;;;-147.20;100.00;58430.41;5114148;28;20460;-10
2022/08/22 08:11:07;;;;;;;;;;;29.00;45.30;;;-147.20;100.00;58430.41;5096366;28;20102;-10
2022/08/22 08:13:38;;;;;;;4.40;1.70;;;29.00;45.30;;;-147.20;100.00;58430.41;5113756;28;19924;-9
2022/08/22 08:16:09;;;;;;;5.00;1.92;;;29.10;45.20;;;-147.20;100.00;58430.41;5114153;28;20477;-10
2022/08/22 08:18:37;;;;;;;3.28;1.80;;;29.10;45.20;;;-147.20;100.00;58430.41;5114007;28;20051;-9
2022/08/22 08:21:17;;;;;;;4.38;2.10;;;29.10;45.20;;;-147.20;100.00;58430.41;5095606;28;20056;-10
2022/08/22 08:23:45;;;;;;;5.15;2.28;;;29.20;45.30;;;-147.20;100.00;58430.41;5113800;28;20050;-10
2022/08/22 08:26:17;;;;;;;3.45;1.90;;;29.20;45.30;;;-147.20;100.00;58430.41;5077117;28;20040;-9
2022/08/22 08:28:49;;;;;;;4.63;1.85;;;29.10;45.20;;;-147.20;100.00;58430.41;5095792;28;20135;-10
2022/08/22 08:31:34;;;;;;;4.57;2.33;;;29.20;45.60;;;-147.20;100.00;58430.41;5095366;28;20047;-9
2022/08/22 08:34:24;;;;;;;6.03;2.17;;;29.10;45.80;;;-147.20;100.00;58430.41;5113537;28;20042;-9
2022/08/22 08:37:04;;;;;;;4.82;1.88;;;29.10;45.80;;;-147.20;100.00;58430.41;5113538;28;20055;-9
2022/08/22 08:39:47;;;;;;;4.55;2.30;;;29.00;45.70;;;-147.20;100.00;58430.41;5095233;28;20044;-9
2022/08/22 08:42:24;;;;;;;3.47;1.85;;;29.00;45.50;;;-147.20;100.00;58430.41;5094001;28;20043;-9
2022/08/22 08:45:17;;;;;;;3.67;2.17;;;29.10;45.60;;;-147.20;100.00;58430.41;5094915;28;20050;-9
2022/08/22 08:48:13;;;;;;;5.32;1.83;;;29.00;45.60;;;-147.20;100.00;58430.41;5095047;28;20353;-9
2022/08/22 08:51:06;;;;;;;2.85;1.52;;;28.90;45.80;;;-147.20;100.00;58430.41;5095033;28;20052;-9
2022/08/22 08:54:03;;;;;;;5.43;2.20;;;28.80;46.10;;;-147.20;100.00;58430.41;5113343;28;20050;-9
2022/08/22 08:56:54;;;;;;;3.15;1.95;;;28.90;46.10;;;-147.20;100.00;58430.41;5094991;28;20048;-9
2022/08/22 08:59:42;;;;;;;5.13;1.75;;;28.80;46.00;;;-147.20;100.00;58430.41;5094041;28;20131;-9
2022/08/22 09:02:22;;;;;;;6.38;1.70;;;28.90;46.30;;;-147.20;100.00;58430.41;5113564;28;20056;-9
2022/08/22 09:05:40;;;;;;;3.92;2.00;;;28.80;46.70;;;-147.20;100.00;58430.41;5092953;28;20048;-9
2022/08/22 09:08:43;;;;;;;5.93;2.05;;;28.80;46.80;;;-147.20;100.00;58430.41;5113286;28;20477;-10
2022/08/22 09:11:47;;;;;;;5.85;2.03;;;28.80;47.00;;;-147.20;100.00;58430.41;5094708;28;20055;-9
2022/08/22 09:15:05;;;;;;;4.90;1.90;;;28.80;46.40;;;-147.20;100.00;58430.41;5112673;28;20052;-9
2022/08/22 09:18:07;;;;;;;4.00;1.98;;;28.80;46.50;;;-147.20;100.00;58430.41;5113018;28;20044;-9
2022/08/22 09:20:40;;;;;;;6.13;1.77;;;28.80;46.70;;;-147.20;100.00;58430.41;5112879;28;20512;-10
2022/08/22 09:24:09;;;;;;;5.22;2.17;;;28.80;46.70;;;-147.20;100.00;58430.41;5112919;28;20382;-10
2022/08/22 09:26:47;;;;;;;4.78;1.70;;;28.80;46.50;;;-147.20;100.00;58430.41;5112853;28;20065;-10
2022/08/22 09:29:47;;;;;;;4.32;2.38;;;28.80;46.20;;;-147.20;100.00;58430.41;5094085;28;20484;-10
2022/08/22 09:33:01;;;;;;;4.90;2.25;;;28.80;46.10;;;-147.20;100.00;58430.41;5094306;28;20136;-10
2022/08/22 09:35:42;;;;;;;6.35;2.15;;;28.80;46.10;;;-147.20;100.00;58430.41;5111895;28;20564;-10
2022/08/22 09:38:49;;;;;;;4.10;1.95;;;28.80;46.00;;;-147.20;100.00;58430.41;5112553;28;20043;-10
2022/08/22 09:41:33;;;;;;;3.83;1.83;;;28.80;45.90;;;-147.20;100.00;58430.41;5112633;28;20044;-10
2022/08/22 09:44:14;;;;;;;4.22;1.58;;;28.90;45.90;;;-147.20;100.00;58430.41;5112870;28;20051;-10
2022/08/22 09:47:02;;;;;;;4.07;1.80;;;28.80;46.00;;;-147.20;100.00;58430.41;5093177;28;20114;-10
2022/08/22 09:49:56;;;;;;;4.25;1.90;;;28.80;46.00;;;-147.20;100.00;58430.41;5077525;28;20105;-10
2022/08/22 09:52:32;;;;;;;2.40;1.60;;;28.80;46.00;;;-147.20;100.00;58430.41;5094095;28;20074;-10
2022/08/22 09:55:20;;;;;;;2.67;1.50;;;28.80;46.00;;;-147.20;100.00;58430.41;5111657;28;20047;-10
2022/08/22 09:57:54;;;;;;;5.60;1.83;;;28.80;46.00;;;-147.20;100.00;58430.41;5093560;28;20067;-10
2022/08/22 10:00:46;;;;;;;5.50;1.90;;;28.90;45.90;;;-147.20;100.00;58430.41;5094312;28;20047;-10
2022/08/22 10:03:50;;;;;;;4.38;1.58;;;28.80;46.10;;;-147.20;100.00;58430.41;5112381;28;20066;-10
2022/08/22 10:06:35;;;;;;;4.38;1.65;;;28.90;46.10;;;-147.20;100.00;58430.41;5112409;28;20059;-9
2022/08/22 10:09:21;;;;;;;4.57;2.10;;;28.90;45.90;;;-147.20;100.00;58430.41;5093283;28;20209;-9
2022/08/22 10:12:00;;;;;;;4.60;2.10;;;28.90;45.80;;;-147.20;100.00;58430.41;5094050;28;20060;-9
2022/08/22 10:15:03;;;;;;;2.50;1.73;;;28.90;45.70;;;-147.20;100.00;58430.41;5112189;28;20503;-9
2022/08/22 10:17:36;;;;;;;3.30;1.63;;;28.90;45.80;;;-147.20;100.00;58430.41;5113888;28;20095;-9
2022/08/22 10:20:23;;;;;;;5.28;2.40;;;28.90;45.70;;;-147.20;100.00;58430.41;5080616;28;20126;-10
2022/08/22 10:23:20;;;;;;;3.75;1.70;;;28.90;45.40;;;-147.20;100.00;58430.41;5080807;28;20131;-9
2022/08/22 10:26:09;;;;;;;7.57;2.17;;;28.90;45.80;;;-147.20;100.00;58430.41;5097655;28;20489;-9
2022/08/22 10:28:54;;;;;;;6.70;2.30;;;28.90;45.40;;;-147.20;100.00;58430.41;5096681;28;20056;-10
2022/08/22 10:31:49;;;;;;;4.50;2.20;;;28.90;45.70;;;-147.20;100.00;58430.41;5115563;28;20036;-9
2022/08/22 10:34:21;;;;;;;8.07;2.60;;;28.90;45.70;;;-147.20;100.00;58430.41;5097221;28;20168;-9
2022/08/22 10:37:17;;;;;;;6.22;2.80;;;28.90;45.40;;;-147.20;100.00;58430.41;5097336;28;20481;-10
2022/08/22 10:40:01;;;;;;;4.78;2.13;;;28.90;44.90;;;-147.20;100.00;58430.41;5111469;28;20059;-9
2022/08/22 10:42:49;;;;;;;3.83;2.28;;;28.90;44.90;;;-147.20;100.00;58430.41;5096698;28;20052;-9
2022/08/22 10:45:33;;;;;;;6.15;2.45;;;28.90;44.50;;;-147.20;100.00;58430.41;5097171;28;20052;-10
2022/08/22 10:48:05;;;;;;;3.50;1.83;;;28.90;44.00;;;-147.20;100.00;58430.41;5080001;28;20051;-9
2022/08/22 10:50:42;;;;;;;3.60;2.20;;;28.80;44.40;;;-147.20;100.00;58430.41;5115272;28;20035;-9
2022/08/22 10:53:57;;;;;;;4.63;2.28;;;28.80;44.30;;;-147.20;100.00;58430.41;5097227;28;20071;-9
2022/08/22 10:56:38;;;;;;;6.10;2.08;;;28.80;44.30;;;-147.20;100.00;58430.41;5115131;28;20440;-9
2022/08/22 10:59:15;;;;;;;6.13;2.10;;;28.80;44.20;;;-147.20;100.00;58430.41;5096797;28;20043;-9
2022/08/22 11:01:59;;;;;;;6.00;2.08;;;28.80;43.90;;;-147.20;100.00;58430.41;5115122;28;20105;-9
2022/08/22 11:05:05;;;;;;;5.43;2.20;;;28.80;43.90;;;-147.20;100.00;58430.41;5097129;28;20051;-9
2022/08/22 11:08:17;;;;;;;5.38;2.28;;;28.80;43.80;;;-147.20;100.00;58430.41;5095849;28;20051;-9
2022/08/22 11:11:14;;;;;;;4.93;2.42;;;28.80;43.60;;;-147.20;100.00;58430.41;5096518;28;20048;-9
2022/08/22 11:14:08;;;;;;;8.98;2.95;;;28.80;43.60;;;-147.20;100.00;58430.41;5113445;28;20090;-10
2022/08/22 11:17:10;;;;;;;4.63;1.95;;;28.80;43.40;;;-147.20;100.00;58430.41;5114771;28;20043;-10
2022/08/22 11:20:56;;;;;;;3.90;2.42;;;28.80;43.30;;;-147.20;100.00;58430.41;5094116;28;20051;-14
2022/08/22 11:23:36;;;;;;;5.47;2.22;;;28.80;43.30;;;-147.20;100.00;58430.41;5012162;28;20467;-10
2022/08/22 11:26:22;;;;;;;3.15;1.95;;;28.80;43.30;;;-147.20;100.00;58430.41;5115130;28;20096;-10
2022/08/22 11:28:56;;;;;;;3.45;1.90;;;28.80;43.40;;;-147.20;100.00;58430.41;5113657;28;20063;-10
2022/08/22 11:31:44;;;;;;;5.72;1.83;;;28.80;43.20;;;-147.20;100.00;58430.41;5114772;28;20071;-10